sensor_id;sensor_type;location;lat;lon;timestamp;P1;durP1;ratioP1;P2;durP2;ratioP2
63900;SDS011;50538;53.482;10.294;2023-04-24T00:23:19;2.88;;;1.50;;
63900;SDS011;50538;53.482;10.294;2023-04-24T03:27:53;1.40;;;0.70;;
63900;SDS011;50538;53.482;10.294;2023-04-24T03:37:54;0.70;;;0.60;;
63900;SDS011;50538;53.482;10.294;2023-04-24T03:47:57;1.35;;;0.85;;
63900;SDS011;50538;53.482;10.294;2023-04-24T03:57:57;1.20;;;0.70;;
63900;SDS011;50538;53.482;10.294;2023-04-24T04:07:58;2.38;;;0.98;;
63900;SDS011;50538;53.482;10.294;2023-04-24T04:18:40;1.27;;;0.90;;
63900;SDS011;50538;53.482;10.294;2023-04-24T04:39:27;0.77;;;0.50;;
63900;SDS011;50538;53.482;10.294;2023-04-24T04:49:32;0.60;;;0.55;;
63900;SDS011;50538;53.482;10.294;2023-04-24T04:59:33;1.20;;;0.68;;
63900;SDS011;50538;53.482;10.294;2023-04-24T05:09:33;1.13;;;0.73;;
63900;SDS011;50538;53.482;10.294;2023-04-24T05:19:34;0.77;;;0.60;;
63900;SDS011;50538;53.482;10.294;2023-04-24T05:29:36;0.50;;;0.50;;
63900;SDS011;50538;53.482;10.294;2023-04-24T05:39:36;1.70;;;0.70;;
63900;SDS011;50538;53.482;10.294;2023-04-24T05:49:37;0.43;;;0.43;;
63900;SDS011;50538;53.482;10.294;2023-04-24T05:59:38;0.88;;;0.55;;
63900;SDS011;50538;53.482;10.294;2023-04-24T06:09:38;1.05;;;0.50;;
63900;SDS011;50538;53.482;10.294;2023-04-24T06:19:39;0.50;;;0.50;;
63900;SDS011;50538;53.482;10.294;2023-04-24T06:29:40;1.63;;;0.70;;
63900;SDS011;50538;53.482;10.294;2023-04-24T06:39:40;3.35;;;0.77;;
63900;SDS011;50538;53.482;10.294;2023-04-24T06:49:41;1.40;;;0.68;;
63900;SDS011;50538;53.482;10.294;2023-04-24T06:59:42;1.48;;;0.90;;
63900;SDS011;50538;53.482;10.294;2023-04-24T07:09:42;1.40;;;0.80;;
63900;SDS011;50538;53.482;10.294;2023-04-24T07:30:19;1.55;;;0.70;;
63900;SDS011;50538;53.482;10.294;2023-04-24T08:43:56;3.83;;;1.70;;
63900;SDS011;50538;53.482;10.294;2023-04-24T10:31:01;6.80;;;2.90;;
63900;SDS011;50538;53.482;10.294;2023-04-24T10:41:48;10.85;;;3.30;;
63900;SDS011;50538;53.482;10.294;2023-04-24T10:52:04;6.53;;;3.75;;
63900;SDS011;50538;53.482;10.294;2023-04-24T11:02:48;5.32;;;2.95;;
63900;SDS011;50538;53.482;10.294;2023-04-24T11:12:57;8.95;;;3.30;;
63900;SDS011;50538;53.482;10.294;2023-04-24T11:23:03;7.07;;;3.58;;
63900;SDS011;50538;53.482;10.294;2023-04-24T11:33:04;7.10;;;3.67;;
63900;SDS011;50538;53.482;10.294;2023-04-24T11:43:06;6.75;;;3.13;;
63900;SDS011;50538;53.482;10.294;2023-04-24T11:53:10;7.57;;;3.20;;
63900;SDS011;50538;53.482;10.294;2023-04-24T12:03:11;6.00;;;3.10;;
63900;SDS011;50538;53.482;10.294;2023-04-24T12:13:12;4.85;;;2.45;;
63900;SDS011;50538;53.482;10.294;2023-04-24T12:23:13;5.13;;;2.53;;
63900;SDS011;50538;53.482;10.294;2023-04-24T12:33:20;4.80;;;2.30;;
63900;SDS011;50538;53.482;10.294;2023-04-24T12:43:21;5.68;;;2.40;;
63900;SDS011;50538;53.482;10.294;2023-04-24T12:53:21;4.85;;;2.60;;
63900;SDS011;50538;53.482;10.294;2023-04-24T13:03:22;3.45;;;2.08;;
63900;SDS011;50538;53.482;10.294;2023-04-24T13:13:22;3.60;;;1.90;;
63900;SDS011;50538;53.482;10.294;2023-04-24T13:45:28;3.55;;;1.98;;
63900;SDS011;50538;53.482;10.294;2023-04-24T14:28:56;3.13;;;1.70;;
63900;SDS011;50538;53.482;10.294;2023-04-24T15:33:10;2.33;;;1.27;;
63900;SDS011;50538;53.482;10.294;2023-04-24T15:43:15;2.55;;;1.25;;
63900;SDS011;50538;53.482;10.294;2023-04-24T15:53:17;5.10;;;1.63;;
63900;SDS011;50538;53.482;10.294;2023-04-24T16:03:21;1.85;;;0.93;;
63900;SDS011;50538;53.482;10.294;2023-04-24T16:13:21;2.97;;;1.15;;
63900;SDS011;50538;53.482;10.294;2023-04-24T16:23:36;4.30;;;1.20;;
63900;SDS011;50538;53.482;10.294;2023-04-24T16:33:41;3.38;;;1.60;;
63900;SDS011;50538;53.482;10.294;2023-04-24T16:43:42;1.67;;;1.05;;
63900;SDS011;50538;53.482;10.294;2023-04-24T16:53:50;7.03;;;1.20;;
63900;SDS011;50538;53.482;10.294;2023-04-24T17:03:51;3.28;;;1.50;;
63900;SDS011;50538;53.482;10.294;2023-04-24T17:13:52;2.33;;;1.30;;
63900;SDS011;50538;53.482;10.294;2023-04-24T17:23:54;2.40;;;1.30;;
63900;SDS011;50538;53.482;10.294;2023-04-24T17:34:19;4.68;;;1.23;;
63900;SDS011;50538;53.482;10.294;2023-04-24T17:44:24;3.33;;;1.25;;
63900;SDS011;50538;53.482;10.294;2023-04-24T17:54:24;2.92;;;1.08;;
63900;SDS011;50538;53.482;10.294;2023-04-24T18:04:25;2.97;;;1.20;;
63900;SDS011;50538;53.482;10.294;2023-04-24T18:14:25;4.33;;;1.37;;
63900;SDS011;50538;53.482;10.294;2023-04-24T18:24:27;3.40;;;1.60;;
63900;SDS011;50538;53.482;10.294;2023-04-24T18:34:27;5.22;;;1.63;;
63900;SDS011;50538;53.482;10.294;2023-04-24T18:44:42;2.45;;;1.35;;
63900;SDS011;50538;53.482;10.294;2023-04-24T18:54:49;2.95;;;1.17;;
63900;SDS011;50538;53.482;10.294;2023-04-24T19:04:51;3.40;;;1.20;;
63900;SDS011;50538;53.482;10.294;2023-04-24T19:15:01;3.83;;;1.10;;
63900;SDS011;50538;53.482;10.294;2023-04-24T19:25:17;1.67;;;0.90;;
63900;SDS011;50538;53.482;10.294;2023-04-24T19:35:17;1.15;;;0.90;;
63900;SDS011;50538;53.482;10.294;2023-04-24T19:45:18;3.20;;;1.10;;
63900;SDS011;50538;53.482;10.294;2023-04-24T19:55:24;2.72;;;1.33;;
63900;SDS011;50538;53.482;10.294;2023-04-24T20:05:35;4.72;;;2.03;;
63900;SDS011;50538;53.482;10.294;2023-04-24T20:15:37;4.72;;;2.00;;
63900;SDS011;50538;53.482;10.294;2023-04-24T20:25:41;4.80;;;2.30;;
63900;SDS011;50538;53.482;10.294;2023-04-24T20:35:44;3.33;;;1.90;;
63900;SDS011;50538;53.482;10.294;2023-04-24T20:45:52;4.30;;;1.77;;
63900;SDS011;50538;53.482;10.294;2023-04-24T20:56:28;6.32;;;1.60;;
63900;SDS011;50538;53.482;10.294;2023-04-24T21:06:35;3.95;;;1.50;;
63900;SDS011;50538;53.482;10.294;2023-04-24T21:16:38;5.78;;;1.70;;
63900;SDS011;50538;53.482;10.294;2023-04-24T21:37:27;4.45;;;1.50;;
63900;SDS011;50538;53.482;10.294;2023-04-24T21:47:31;4.93;;;1.33;;
63900;SDS011;50538;53.482;10.294;2023-04-24T21:57:35;4.20;;;1.58;;
63900;SDS011;50538;53.482;10.294;2023-04-24T22:07:46;3.38;;;1.27;;
63900;SDS011;50538;53.482;10.294;2023-04-24T22:18:11;5.70;;;1.50;;
63900;SDS011;50538;53.482;10.294;2023-04-24T22:28:33;3.95;;;1.42;;
63900;SDS011;50538;53.482;10.294;2023-04-24T22:38:39;2.78;;;1.60;;
63900;SDS011;50538;53.482;10.294;2023-04-24T22:48:41;3.90;;;1.58;;
63900;SDS011;50538;53.482;10.294;2023-04-24T22:58:42;5.35;;;1.52;;
63900;SDS011;50538;53.482;10.294;2023-04-24T23:08:50;5.68;;;1.77;;
63900;SDS011;50538;53.482;10.294;2023-04-24T23:18:56;3.38;;;1.42;;
63900;SDS011;50538;53.482;10.294;2023-04-24T23:28:56;3.42;;;1.52;;
63900;SDS011;50538;53.482;10.294;2023-04-24T23:38:59;2.28;;;1.13;;
63900;SDS011;50538;53.482;10.294;2023-04-24T23:49:09;4.35;;;1.48;;
63900;SDS011;50538;53.482;10.294;2023-04-24T23:59:09;4.03;;;1.27;;
